createdAt,value
2022-08-05T00:03:46.439Z,19.87
2022-08-05T00:08:46.400Z,19.79
2022-08-05T00:13:46.415Z,19.7
2022-08-05T00:18:46.376Z,19.64
2022-08-05T00:23:53.493Z,19.62
2022-08-05T00:28:46.379Z,19.64
2022-08-05T00:34:43.090Z,19.63
2022-08-05T00:38:46.360Z,19.59
2022-08-05T00:43:47.453Z,19.55
2022-08-05T00:48:50.697Z,19.51
2022-08-05T00:54:01.581Z,19.46
2022-08-05T00:58:46.318Z,19.44
2022-08-05T01:03:50.004Z,19.44
2022-08-05T01:08:47.354Z,19.48
2022-08-05T01:13:58.081Z,19.53
2022-08-05T01:18:47.960Z,19.6
2022-08-05T01:23:47.185Z,19.61
2022-08-05T01:28:46.278Z,19.63
2022-08-05T01:33:49.092Z,19.63
2022-08-05T01:38:46.275Z,19.65
2022-08-05T01:43:46.274Z,19.68
2022-08-05T01:48:49.334Z,19.7
2022-08-05T01:53:55.459Z,19.75
2022-08-05T01:58:46.664Z,19.77
2022-08-05T02:03:46.232Z,19.74
2022-08-05T02:08:55.097Z,19.74
2022-08-05T02:13:48.859Z,19.7
2022-08-05T02:18:46.211Z,19.7
2022-08-05T02:23:46.214Z,19.7
2022-08-05T02:28:46.286Z,19.7
2022-08-05T02:33:46.201Z,19.68
2022-08-05T02:38:53.079Z,19.67
2022-08-05T02:44:03.083Z,19.65
2022-08-05T02:48:46.189Z,19.64
2022-08-05T02:53:46.170Z,19.64
2022-08-05T02:58:51.114Z,19.67
2022-08-05T03:04:02.334Z,19.66
2022-08-05T03:08:46.146Z,19.67
2022-08-05T03:13:51.342Z,19.69
2022-08-05T03:18:46.142Z,19.72
2022-08-05T03:23:46.110Z,19.75
2022-08-05T03:28:46.126Z,19.78
2022-08-05T03:33:51.374Z,19.87
2022-08-05T03:38:52.521Z,19.97
2022-08-05T03:43:59.353Z,20.07
2022-08-05T03:48:46.720Z,20.28
2022-08-05T03:55:51.536Z,20.53
2022-08-05T03:58:46.117Z,20.73
2022-08-05T04:03:56.885Z,20.98
2022-08-05T04:08:46.062Z,20.98
2022-08-05T04:13:49.529Z,21
2022-08-05T04:18:46.046Z,21.1
2022-08-05T04:23:57.093Z,21.07
2022-08-05T04:28:50.922Z,21.12
2022-08-05T04:33:55.219Z,21.56
2022-08-05T04:38:46.055Z,22.18
2022-08-05T04:43:46.723Z,22.58
2022-08-05T04:48:46.051Z,22.79
2022-08-05T04:53:46.008Z,22.9
2022-08-05T04:58:46.006Z,23.02
2022-08-05T05:03:46.001Z,23.13
2022-08-05T05:08:45.978Z,23.21
2022-08-05T05:13:45.984Z,23.15
2022-08-05T05:19:02.718Z,23.15
2022-08-05T05:24:02.656Z,23.46
2022-08-05T05:28:45.960Z,23.99
2022-08-05T05:33:58.965Z,24.33
2022-08-05T05:38:45.953Z,24.53
2022-08-05T05:43:57.765Z,24.76
2022-08-05T05:48:47.751Z,25.08
2022-08-05T05:53:54.761Z,25.43
2022-08-05T05:58:45.916Z,25.86
2022-08-05T06:04:00.259Z,26.37
2022-08-05T06:08:47.853Z,26.76
2022-08-05T06:13:50.361Z,27.15
2022-08-05T06:18:45.892Z,27.55
2022-08-05T06:23:45.881Z,27.83
2022-08-05T06:28:45.872Z,28.03
2022-08-05T06:34:06.683Z,28.33
2022-08-05T06:38:47.132Z,28.6
2022-08-05T06:43:51.825Z,28.84
2022-08-05T06:48:53.330Z,29.13
2022-08-05T06:53:53.416Z,29.41
2022-08-05T06:58:46.690Z,29.6
2022-08-05T07:03:45.848Z,29.54
2022-08-05T07:08:47.429Z,29.64
2022-08-05T07:13:57.373Z,29.65
2022-08-05T07:18:47.690Z,29.72
2022-08-05T07:23:49.254Z,29.97
2022-08-05T07:28:45.813Z,30.15
2022-08-05T07:38:45.792Z,30.43
2022-08-05T07:49:01.290Z,30.98
2022-08-05T07:58:55.120Z,31.56
2022-08-05T08:08:45.758Z,32.11
2022-08-05T08:18:50.070Z,32.07
2022-08-05T08:33:45.733Z,31.19
2022-08-05T08:45:22.029Z,30.78
2022-08-05T08:49:03.226Z,30.46
2022-08-05T08:53:45.704Z,30.13
2022-08-05T08:58:48.090Z,29.96
2022-08-05T09:03:45.774Z,29.96
2022-08-05T09:08:45.668Z,29.8
2022-08-05T09:14:00.737Z,29.72
2022-08-05T09:18:45.668Z,29.64
2022-08-05T09:23:45.689Z,29.69
2022-08-05T09:28:45.671Z,29.54
2022-08-05T09:33:45.646Z,29.46
2022-08-05T09:38:45.646Z,29.48
2022-08-05T09:43:45.650Z,29.39
2022-08-05T09:48:55.215Z,29.49
2022-08-05T09:53:54.130Z,29.48
2022-08-05T09:58:45.614Z,29.53
2022-08-05T10:03:57.125Z,29.6
2022-08-05T10:08:50.245Z,29.87
2022-08-05T10:13:47.935Z,29.79
2022-08-05T10:18:45.582Z,29.81
2022-08-05T10:23:56.247Z,29.73
2022-08-05T10:28:46.268Z,29.88
2022-08-05T10:33:45.576Z,29.81
2022-08-05T10:38:45.576Z,29.75
2022-08-05T10:43:45.573Z,29.72
2022-08-05T10:48:53.111Z,29.71
2022-08-05T10:53:45.595Z,29.81
2022-08-05T10:58:47.970Z,29.77
2022-08-05T11:03:45.596Z,29.97
2022-08-05T11:08:45.526Z,30.25
2022-08-05T11:13:55.202Z,30.44
2022-08-05T11:18:47.183Z,30.43
2022-08-05T11:24:03.549Z,30.35
2022-08-05T11:28:45.503Z,30.43
2022-08-05T11:33:46.155Z,30.67
2022-08-05T11:38:51.174Z,30.85
2022-08-05T11:44:01.213Z,30.75
2022-08-05T11:48:45.545Z,30.85
2022-08-05T11:53:45.474Z,31.06
2022-08-05T11:58:47.894Z,31.01
2022-08-05T12:03:55.658Z,31.21
2022-08-05T12:08:47.989Z,31.3
2022-08-05T12:13:48.347Z,31.65
2022-08-05T12:18:48.794Z,31.96
2022-08-05T12:23:45.436Z,32
2022-08-05T12:28:46.333Z,31.67
2022-08-05T12:33:45.428Z,31.5
2022-08-05T12:38:45.407Z,31.44
2022-08-05T12:43:45.430Z,31.73
2022-08-05T12:48:45.393Z,31.88
2022-08-05T12:53:47.470Z,31.65
2022-08-05T13:14:04.294Z,31.45
2022-08-05T13:18:45.365Z,31.77
2022-08-05T13:23:50.479Z,32.1
2022-08-05T13:28:45.368Z,32.36
2022-08-05T13:58:53.188Z,31.47
2022-08-05T14:03:46.892Z,31.48
2022-08-05T14:08:45.336Z,31.51
2022-08-05T14:13:48.077Z,31.5
2022-08-05T14:18:45.287Z,31.55
2022-08-05T14:23:45.304Z,31.55
2022-08-05T14:28:52.013Z,31.5
2022-08-05T14:33:56.876Z,31.41
2022-08-05T14:38:45.275Z,31.3
2022-08-05T14:43:54.030Z,31.12
2022-08-05T14:48:49.290Z,30.94
2022-08-05T14:53:45.266Z,30.87
2022-08-05T14:58:47.471Z,30.72
2022-08-05T15:03:45.408Z,30.6
2022-08-05T15:08:58.915Z,30.58
2022-08-05T15:13:46.393Z,30.74
2022-08-05T15:18:47.044Z,30.9
2022-08-05T15:28:45.228Z,31.95
2022-08-05T15:33:57.093Z,32.01
2022-08-05T15:38:46.321Z,32.1
2022-08-05T15:43:45.598Z,32.1
2022-08-05T15:48:52.019Z,31.97
2022-08-05T15:53:50.232Z,31.81
2022-08-05T15:58:45.190Z,31.8
2022-08-05T16:03:45.172Z,32.11
2022-08-05T16:08:45.160Z,32.18
2022-08-05T16:13:45.162Z,32.24
2022-08-05T16:18:52.001Z,32.32
2022-08-05T16:23:53.460Z,32.29
2022-08-05T16:28:45.142Z,32.1
2022-08-05T16:33:45.162Z,31.94
2022-08-05T16:38:45.128Z,31.91
2022-08-05T16:43:45.135Z,32.1
2022-08-05T16:48:45.129Z,32.1
2022-08-05T16:54:02.322Z,31.91
2022-08-05T16:58:45.126Z,31.66
2022-08-05T17:03:45.128Z,31.36
2022-08-05T17:08:52.631Z,31.17
2022-08-05T17:13:45.231Z,30.87
2022-08-05T17:18:45.084Z,30.59
2022-08-05T17:24:03.952Z,30.4
2022-08-05T17:28:47.218Z,30.13
2022-08-05T17:33:48.258Z,29.87
2022-08-05T17:38:45.068Z,29.63
2022-08-05T17:43:47.373Z,29.35
2022-08-05T17:48:45.053Z,29.08
2022-08-05T17:53:45.071Z,28.74
2022-08-05T17:58:45.053Z,28.39
2022-08-05T18:03:56.710Z,28.2
2022-08-05T18:08:46.016Z,28.03
2022-08-05T18:13:45.052Z,27.86
2022-08-05T18:18:47.759Z,27.65
2022-08-05T18:23:45.617Z,27.41
2022-08-05T18:28:46.459Z,27.23
2022-08-05T18:33:47.376Z,27.06
2022-08-05T18:38:45.001Z,26.85
2022-08-05T18:43:48.514Z,26.56
2022-08-05T18:48:44.985Z,26.55
2022-08-05T18:53:45.815Z,26.39
2022-08-05T18:58:44.969Z,26.24
2022-08-05T19:03:53.673Z,26.05
2022-08-05T19:08:44.948Z,25.94
2022-08-05T19:13:47.948Z,25.8
2022-08-05T19:18:44.936Z,25.68
2022-08-05T19:24:04.591Z,25.56
2022-08-05T19:28:44.925Z,25.48
2022-08-05T19:33:48.007Z,25.38
2022-08-05T19:38:44.906Z,25.28
2022-08-05T19:44:05.178Z,25.16
2022-08-05T19:48:44.898Z,25.11
2022-08-05T19:54:03.278Z,25.04
2022-08-05T19:58:53.677Z,24.97
2022-08-05T20:03:44.871Z,24.91
2022-08-05T20:08:47.185Z,24.86
2022-08-05T20:13:55.092Z,24.81
2022-08-05T20:18:44.987Z,24.7
2022-08-05T20:23:49.381Z,24.62
2022-08-05T20:28:44.863Z,24.12
2022-08-05T20:33:45.057Z,23.39
2022-08-05T20:38:53.230Z,22.58
2022-08-05T20:43:58.185Z,22.03
2022-08-05T20:48:44.819Z,21.73
2022-08-05T20:53:55.389Z,21.41
2022-08-05T20:58:44.823Z,21.12
2022-08-05T21:03:48.030Z,20.98
2022-08-05T21:08:44.811Z,20.83
2022-08-05T21:13:47.190Z,20.64
2022-08-05T21:18:45.188Z,20.46
2022-08-05T21:23:44.762Z,20.08
2022-08-05T21:28:47.822Z,19.65
2022-08-05T21:33:47.667Z,19.18
2022-08-05T21:38:44.742Z,19.12
2022-08-05T21:43:44.744Z,19.12
2022-08-05T21:48:44.717Z,19.12
2022-08-05T21:53:44.728Z,19.12
2022-08-05T21:58:48.181Z,19.12
2022-08-05T22:14:06.697Z,19.12
2022-08-05T22:18:49.089Z,19.05
2022-08-05T22:24:01.578Z,19.01
2022-08-05T22:28:44.683Z,18.96
2022-08-05T22:33:56.214Z,18.93
2022-08-05T22:38:48.437Z,18.9
2022-08-05T22:43:44.667Z,18.86
2022-08-05T22:48:44.667Z,18.84
2022-08-05T22:53:49.766Z,18.8
2022-08-05T23:03:57.457Z,18.79
2022-08-05T23:18:44.604Z,18.76
2022-08-05T23:23:44.610Z,18.76
2022-08-05T23:28:44.588Z,18.7
2022-08-05T23:34:02.803Z,18.66
2022-08-05T23:38:44.581Z,18.6
2022-08-05T23:43:49.800Z,18.59
2022-08-05T23:48:44.570Z,18.59
2022-08-05T23:53:46.316Z,18.57
2022-08-05T23:58:44.550Z,18.59
